Maxwell, Indiana
Current Conditions -  °F | °C
As of 7:15 AM on Friday 28 Nov 2014 (Local Time) from KMQJ Reporting Station
Scattered Clouds Scattered Clouds  
Wind Chill: 16°   Ceiling: Unl
Heat Index: 23°   Visibility: 7mi
Dew Point: 21°   Wind: 6mph
Humidity: 93%   Direction: 120°ESE
Pressure: 30.35"   Gusts: NA
Location:  39.86°N, 85.77°W
Report Text: KMQJ 281215Z AUTO 12005KT 7SM SCT007 SCT085 M05/M06 A3035 RMK AO1
Loading
Personal Weather Stations






























Interactive Weather Map New forecast layout! Learn more

10-Day Weather Forecast

Advertisements
Track Severe Weather on mobile